Time;durP1;ratioP1;P1;durP2;ratioP2;P2;SDS_P1;SDS_P2;PMS_P1;PMS_P2;Temp;Humidity;BMP_temperature;BMP_pressure;BME280_temperature;BME280_humidity;BME280_pressure;Samples;Min_cycle;Max_cycle;Signal;HPM_P1;HPM_P2
2022/04/21 00:01:03;;;;;;;4.50;2.53;;;;;;;9.67;85.48;101664.50;5111831;28;20519;-28
2022/04/21 00:03:31;;;;;;;5.47;3.22;;;;;;;9.65;85.30;101659.22;5112940;28;20467;-27
2022/04/21 00:05:59;;;;;;;5.80;3.08;;;;;;;9.64;85.19;101660.31;5112954;28;20055;-29
2022/04/21 00:08:27;;;;;;;5.50;3.40;;;;;;;9.62;85.27;101645.81;5112016;28;20043;-28
2022/04/21 00:10:54;;;;;;;5.05;3.08;;;;;;;9.60;85.54;101652.78;5112668;28;20039;-27
2022/04/21 00:13:22;;;;;;;4.90;2.90;;;;;;;9.58;85.79;101653.06;5112656;28;20053;-28
2022/04/21 00:15:51;;;;;;;6.95;3.13;;;;;;;9.57;86.29;101653.34;5111512;28;20050;-29
2022/04/21 00:18:19;;;;;;;6.45;3.20;;;;;;;9.54;86.28;101649.16;5112624;28;20063;-28
2022/04/21 00:20:46;;;;;;;4.25;2.70;;;;;;;9.52;86.79;101651.38;5112402;28;20051;-29
2022/04/21 00:23:29;;;;;;;4.63;2.97;;;;;;;9.50;86.74;101652.75;5111775;28;20038;-29
2022/04/21 00:25:58;;;;;;;5.65;3.10;;;;;;;9.47;86.95;101644.94;5112092;28;20055;-26
2022/04/21 00:28:28;;;;;;;4.95;3.03;;;;;;;9.45;87.11;101650.78;5112809;28;20051;-29
2022/04/21 00:30:58;;;;;;;4.93;2.78;;;;;;;9.43;87.40;101650.19;5111638;28;20043;-28
2022/04/21 00:33:26;;;;;;;5.38;3.72;;;;;;;9.40;87.74;101652.69;5108676;28;20445;-36
2022/04/21 00:35:53;;;;;;;6.00;3.28;;;;;;;9.37;87.90;101659.66;5112372;28;20040;-34
2022/04/21 00:38:21;;;;;;;4.70;2.83;;;;;;;9.33;88.35;101645.44;5110208;28;20066;-32
2022/04/21 00:40:50;;;;;;;4.75;2.60;;;;;;;9.31;88.17;101653.22;5111348;28;20063;-28
2022/04/21 00:43:18;;;;;;;5.97;3.20;;;;;;;9.28;88.71;101642.63;5110504;28;20124;-27
2022/04/21 00:45:47;;;;;;;5.60;3.20;;;;;;;9.25;88.87;101643.16;5111285;28;20129;-29
2022/04/21 00:48:16;;;;;;;5.03;2.75;;;;;;;9.24;89.63;101641.50;5111310;28;20047;-26
2022/04/21 00:50:44;;;;;;;5.10;3.15;;;;;;;9.21;89.91;101642.03;5102923;28;20048;-27
2022/04/21 00:53:12;;;;;;;5.97;3.08;;;;;;;9.19;89.94;101635.09;5111026;28;20051;-27
2022/04/21 00:55:41;;;;;;;4.30;3.08;;;;;;;9.18;89.98;101638.97;5111520;28;20054;-34
2022/04/21 00:58:09;;;;;;;6.45;3.40;;;;;;;9.15;90.36;101634.78;5110322;28;20048;-26
2022/04/21 01:00:37;;;;;;;5.90;3.70;;;;;;;9.12;90.78;101638.09;5111102;28;20043;-28
2022/04/21 01:03:06;;;;;;;5.30;2.97;;;;;;;9.11;90.98;101639.22;5110858;28;20088;-27
2022/04/21 01:05:35;;;;;;;5.97;3.00;;;;;;;9.10;91.00;101640.31;5110055;28;20061;-27
2022/04/21 01:08:05;;;;;;;5.50;3.33;;;;;;;9.07;90.77;101632.50;5109696;28;20130;-27
2022/04/21 01:10:34;;;;;;;4.88;3.28;;;;;;;9.06;90.99;101635.53;5111418;28;20047;-34
2022/04/21 01:13:05;;;;;;;3.50;2.28;;;;;;;9.05;91.16;101631.94;5099128;28;20044;-31
2022/04/21 01:15:32;;;;;;;5.25;2.75;;;;;;;9.03;91.42;101636.91;5111198;28;20075;-27
2022/04/21 01:18:00;;;;;;;3.40;2.13;;;;;;;8.99;91.40;101631.06;5110637;28;20408;-29
2022/04/21 01:20:29;;;;;;;5.20;3.10;;;;;;;8.97;91.12;101633.28;5109900;28;20063;-28
2022/04/21 01:22:57;;;;;;;5.05;2.97;;;;;;;8.94;91.17;101628.25;5110864;28;20133;-27
2022/04/21 01:25:25;;;;;;;6.10;3.35;;;;;;;8.93;91.64;101620.19;5110266;28;20040;-29
2022/04/21 01:27:55;;;;;;;5.07;2.92;;;;;;;8.90;91.74;101621.56;5109289;28;20040;-27
2022/04/21 01:30:23;;;;;;;4.53;2.30;;;;;;;8.87;91.79;101622.09;5107784;28;20051;-28
2022/04/21 01:32:51;;;;;;;4.43;2.75;;;;;;;8.86;91.65;101620.41;5109899;28;20059;-31
2022/04/21 01:35:19;;;;;;;4.60;2.60;;;;;;;8.84;91.79;101627.34;5110539;28;20052;-29
2022/04/21 01:43:19;;;;;;;5.18;3.35;;;;;;;8.74;92.61;101614.22;5110936;28;20062;-28
2022/04/21 01:45:46;;;;;;;5.05;2.67;;;;;;;8.73;93.04;101615.31;5111663;28;20039;-27
2022/04/21 01:48:14;;;;;;;5.75;3.53;;;;;;;8.72;92.88;101618.38;5110603;28;20047;-27
2022/04/21 01:50:42;;;;;;;5.80;3.50;;;;;;;8.69;93.20;101614.19;5111223;28;20063;-27
2022/04/21 01:53:11;;;;;;;4.30;2.80;;;;;;;8.68;93.07;101611.66;5111274;28;20377;-27
2022/04/21 01:55:39;;;;;;;5.30;3.13;;;;;;;8.66;93.41;101608.31;5110214;28;20059;-27
2022/04/21 01:58:07;;;;;;;6.13;3.40;;;;;;;8.64;93.47;101606.63;5111368;28;20047;-26
2022/04/21 02:00:35;;;;;;;5.88;3.70;;;;;;;8.62;94.07;101600.50;5110681;28;20050;-28
2022/04/21 02:03:04;;;;;;;5.55;3.30;;;;;;;8.60;94.18;101605.50;5111479;28;20143;-26
2022/04/21 02:05:32;;;;;;;6.18;3.53;;;;;;;8.59;94.40;101609.38;5110974;28;20547;-27
2022/04/21 02:08:00;;;;;;;7.10;3.33;;;;;;;8.60;94.59;101610.22;5110009;28;20122;-27
2022/04/21 02:10:30;;;;;;;5.78;3.30;;;;;;;8.58;95.01;101610.50;5111203;28;20075;-29
2022/04/21 02:12:58;;;;;;;4.30;2.97;;;;;;;8.57;95.28;101611.63;5111123;28;20065;-28
2022/04/21 02:15:27;;;;;;;5.43;3.63;;;;;;;8.55;95.33;101613.81;5110392;28;20500;-27
2022/04/21 02:17:55;;;;;;;6.05;3.40;;;;;;;8.53;95.70;101607.69;5110902;28;20047;-26
2022/04/21 02:20:23;;;;;;;5.30;3.28;;;;;;;8.53;95.36;101610.47;5109179;28;20142;-27
2022/04/21 02:22:51;;;;;;;4.85;3.05;;;;;;;8.51;95.48;101607.09;5108026;28;20078;-26
2022/04/21 02:25:18;;;;;;;5.70;3.80;;;;;;;8.51;95.90;101611.84;5108909;28;20074;-27
2022/04/21 02:27:49;;;;;;;5.57;3.92;;;;;;;8.50;96.16;101607.38;5109026;28;20051;-32
2022/04/21 02:30:19;;;;;;;3.97;2.58;;;;;;;8.47;96.19;101608.75;5108201;28;20614;-31
2022/04/21 02:32:47;;;;;;;6.40;3.47;;;;;;;8.44;96.22;101606.50;5108858;28;20051;-27
2022/04/21 02:35:16;;;;;;;6.18;3.78;;;;;;;8.44;97.16;101605.66;5108501;28;20054;-28
2022/04/21 02:37:45;;;;;;;6.53;4.32;;;;;;;8.42;97.65;101607.84;5110489;28;20050;-26
2022/04/21 02:40:15;;;;;;;6.93;4.63;;;;;;;8.40;97.40;101602.56;5113917;28;20052;-27
2022/04/21 02:42:43;;;;;;;6.13;3.60;;;;;;;8.38;97.97;101595.63;5113734;28;20047;-28
2022/04/21 02:45:14;;;;;;;4.75;3.30;;;;;;;8.37;97.89;101593.94;5114231;28;20131;-31
2022/04/21 02:47:43;;;;;;;5.05;3.25;;;;;;;8.34;98.11;101586.97;5113459;28;20044;-27
2022/04/21 02:50:13;;;;;;;6.90;4.35;;;;;;;8.32;98.41;101586.38;5113837;28;20047;-27
2022/04/21 02:52:42;;;;;;;6.40;4.50;;;;;;;8.32;98.92;101591.94;5112777;28;20043;-29
2022/04/21 02:57:57;;;;;;;7.90;4.40;;;;;;;8.27;99.89;101595.50;5111723;28;20116;-27
2022/04/21 03:00:26;;;;;;;6.55;4.05;;;;;;;8.28;100.00;101599.09;5113918;27;20143;-27
2022/04/21 03:02:56;;;;;;;5.75;3.95;;;;;;;8.26;100.00;101596.59;5114019;28;20047;-27
2022/04/21 03:05:24;;;;;;;4.63;3.30;;;;;;;8.25;100.00;101599.63;5113223;28;20131;-27
2022/04/21 03:07:52;;;;;;;5.80;4.03;;;;;;;8.23;100.00;101593.50;5113938;28;20055;-26
2022/04/21 03:10:19;;;;;;;5.25;3.00;;;;;;;8.21;100.00;101587.34;5113745;28;20051;-27
2022/04/21 03:12:47;;;;;;;5.93;3.50;;;;;;;8.17;100.00;101589.84;5112986;28;20047;-27
2022/04/21 03:15:15;;;;;;;3.75;2.70;;;;;;;8.16;100.00;101584.56;5114024;28;20488;-27
2022/04/21 03:17:44;;;;;;;6.13;3.85;;;;;;;8.11;100.00;101588.13;5113700;27;20055;-28
2022/04/21 03:24:18;;;;;;;4.78;3.40;;;;;;;8.08;100.00;101583.09;5113833;28;20040;-28
2022/04/21 03:25:46;;;;;;;3.88;2.70;;;;;;;7.97;100.00;101586.91;5113127;28;20382;-27
2022/04/21 03:28:16;;;;;;;3.85;2.58;;;;;;;7.94;100.00;101581.88;5113713;28;20048;-27
2022/04/21 03:30:44;;;;;;;5.55;4.18;;;;;;;7.89;100.00;101585.44;5113513;28;20048;-29
2022/04/21 03:33:13;;;;;;;6.25;3.95;;;;;;;7.88;100.00;101586.53;5112757;28;20069;-28
2022/04/21 03:35:41;;;;;;;5.38;3.78;;;;;;;7.85;100.00;101589.00;5113501;28;20108;-27
2022/04/21 03:38:09;;;;;;;4.85;3.22;;;;;;;7.83;100.00;101583.69;5113406;27;20048;-29
2022/04/21 03:40:36;;;;;;;5.53;3.53;;;;;;;7.81;100.00;101594.22;5112219;28;20056;-28
2022/04/21 03:43:05;;;;;;;4.95;2.88;;;;;;;7.78;100.00;101591.16;5112240;28;20051;-27
2022/04/21 03:45:33;;;;;;;3.53;2.40;;;;;;;7.75;100.00;101588.91;5111118;28;20050;-26
2022/04/21 03:48:02;;;;;;;4.13;2.67;;;;;;;7.71;100.00;101587.75;5111592;28;20148;-28
2022/04/21 03:50:34;;;;;;;5.07;3.50;;;;;;;7.68;100.00;101585.50;5111628;28;20050;-27
2022/04/21 03:53:01;;;;;;;5.27;3.80;;;;;;;7.64;100.00;101582.41;5111908;28;20043;-29
2022/04/21 03:55:29;;;;;;;4.88;3.25;;;;;;;7.62;100.00;101587.38;5112843;28;20040;-27
2022/04/21 03:57:57;;;;;;;6.47;4.45;;;;;;;7.59;100.00;101588.72;5112702;28;20050;-27
2022/04/21 04:00:25;;;;;;;7.03;4.20;;;;;;;7.57;100.00;101584.56;5112153;28;20043;-31
2022/04/21 04:02:54;;;;;;;6.30;4.20;;;;;;;7.56;100.00;101591.22;5113086;28;20503;-27
2022/04/21 04:05:22;;;;;;;5.47;3.55;;;;;;;7.54;100.00;101591.47;5111953;28;20043;-27
2022/04/21 04:10:54;;;;;;;5.30;4.03;;;;;;;7.51;100.00;101589.22;5109263;28;20050;-28
2022/04/21 04:13:22;;;;;;;5.43;3.67;;;;;;;7.51;100.00;101591.16;5112269;28;20051;-27
2022/04/21 04:15:51;;;;;;;7.43;4.25;;;;;;;7.51;100.00;101588.38;5112048;28;20054;-27
2022/04/21 04:18:20;;;;;;;7.22;4.72;;;;;;;7.52;100.00;101595.59;5112417;28;20051;-33
2022/04/21 04:20:49;;;;;;;7.68;5.82;;;;;;;7.51;100.00;101585.59;5112229;28;20389;-32
2022/04/21 04:23:19;;;;;;;6.95;4.72;;;;;;;7.52;100.00;101590.06;5111371;28;20058;-34
2022/04/21 04:25:47;;;;;;;7.55;5.10;;;;;;;7.51;100.00;101592.00;5111711;28;20042;-28
2022/04/21 04:28:15;;;;;;;8.05;5.18;;;;;;;7.52;100.00;101588.13;5111186;28;20484;-27
2022/04/21 04:30:43;;;;;;;7.80;5.00;;;;;;;7.54;100.00;101585.09;5112291;28;20047;-29
2022/04/21 04:33:11;;;;;;;8.07;5.85;;;;;;;7.57;100.00;101590.13;5104996;28;20035;-27
2022/04/21 04:35:39;;;;;;;7.95;5.40;;;;;;;7.60;100.00;101584.00;5110897;28;20492;-27
2022/04/21 04:38:06;;;;;;;9.23;5.10;;;;;;;7.63;100.00;101582.66;5110993;28;20058;-28
2022/04/21 04:40:35;;;;;;;6.22;4.78;;;;;;;7.66;100.00;101594.09;5111029;28;20058;-29
2022/04/21 04:43:03;;;;;;;8.90;5.90;;;;;;;7.68;100.00;101597.44;5110718;28;20503;-27
2022/04/21 04:48:16;;;;;;;8.20;6.20;;;;;;;7.78;100.00;101610.63;5111909;28;20050;-29
2022/04/21 04:50:45;;;;;;;8.95;6.65;;;;;;;7.83;100.00;101611.47;5111003;28;20046;-28
2022/04/21 04:53:13;;;;;;;13.30;8.00;;;;;;;7.88;100.00;101611.53;5111997;28;20081;-28
2022/04/21 04:55:42;;;;;;;11.40;8.27;;;;;;;7.95;100.00;101603.00;5111843;28;20042;-32
2022/04/21 04:58:10;;;;;;;11.77;7.97;;;;;;;7.98;100.00;101613.59;5110656;28;20287;-28
2022/04/21 05:00:37;;;;;;;13.75;9.30;;;;;;;8.01;100.00;101609.41;5111654;28;20055;-28
2022/04/21 05:03:05;;;;;;;12.77;9.15;;;;;;;8.02;100.00;101603.59;5111093;28;20044;-27
2022/04/21 05:05:33;;;;;;;13.30;8.80;;;;;;;8.09;100.00;101615.34;5109524;28;20479;-27
2022/04/21 05:08:05;;;;;;;12.80;8.65;;;;;;;8.14;100.00;101617.34;5100443;28;20050;-30
2022/04/21 05:10:33;;;;;;;11.85;8.27;;;;;;;8.20;100.00;101621.81;5107791;28;20431;-26
2022/04/21 05:13:03;;;;;;;13.60;8.82;;;;;;;8.23;100.00;101622.13;5109653;28;20407;-27
2022/04/21 05:15:30;;;;;;;13.40;8.23;;;;;;;8.26;100.00;101618.00;5110161;28;20070;-27
2022/04/21 05:17:59;;;;;;;12.43;8.35;;;;;;;8.30;100.00;101619.16;5110658;28;20511;-27
2022/04/21 05:20:27;;;;;;;11.18;8.20;;;;;;;8.32;100.00;101619.75;5111387;28;20044;-27
2022/04/21 05:23:04;;;;;;;13.65;9.77;;;;;;;8.37;100.00;101618.97;5110385;28;20047;-28
2022/04/21 05:25:36;;;;;;;14.18;9.20;;;;;;;8.38;100.00;101623.44;5110230;28;20039;-28
2022/04/21 05:28:07;;;;;;;14.85;9.30;;;;;;;8.41;100.00;101620.09;5109726;28;20484;-28
2022/04/21 05:33:24;;;;;;;10.95;8.50;;;;;;;8.44;100.00;101614.84;5109150;28;20088;-27
2022/04/21 05:35:52;;;;;;;11.93;7.47;;;;;;;8.47;100.00;101617.09;5109868;28;20116;-28
2022/04/21 05:38:21;;;;;;;14.02;8.77;;;;;;;8.50;100.00;101621.28;5110355;28;20442;-28
2022/04/21 05:40:50;;;;;;;11.50;7.68;;;;;;;8.52;100.00;101610.72;5109334;28;20101;-27
2022/04/21 05:43:21;;;;;;;9.85;6.53;;;;;;;8.56;100.00;101615.50;5107520;28;20066;-28
2022/04/21 05:45:50;;;;;;;15.75;10.30;;;;;;;8.57;100.00;101606.06;5109223;28;20035;-27
2022/04/21 05:48:18;;;;;;;12.27;7.88;;;;;;;8.61;100.00;101611.88;5107739;28;20051;-30
2022/04/21 05:50:48;;;;;;;12.90;8.93;;;;;;;8.64;100.00;101612.19;5101522;28;20390;-28
2022/04/21 05:53:22;;;;;;;9.55;7.15;;;;;;;8.69;100.00;101608.63;5108622;28;20096;-28
2022/04/21 05:55:51;;;;;;;7.90;5.90;;;;;;;8.72;100.00;101613.66;5110124;28;20150;-29
2022/04/21 05:58:22;;;;;;;13.73;7.90;;;;;;;8.78;100.00;101617.31;5109101;28;20624;-30
2022/04/21 06:00:50;;;;;;;8.52;5.88;;;;;;;8.80;100.00;101613.13;5108764;28;20047;-29
2022/04/21 06:03:24;;;;;;;9.60;7.55;;;;;;;8.84;100.00;101613.44;5107151;28;20039;-30
2022/04/21 06:05:52;;;;;;;9.98;7.03;;;;;;;8.90;100.00;101613.19;5109509;28;20044;-28
2022/04/21 06:08:20;;;;;;;10.63;7.88;;;;;;;8.96;100.00;101622.44;5108438;28;20055;-27
2022/04/21 06:10:48;;;;;;;10.45;6.93;;;;;;;9.01;100.00;101616.03;5109931;28;20043;-35
2022/04/21 06:13:16;;;;;;;9.32;7.15;;;;;;;9.05;100.00;101618.00;5110217;28;20415;-33
2022/04/21 06:15:45;;;;;;;9.93;6.50;;;;;;;9.11;100.00;101611.38;5112824;28;20078;-29
2022/04/21 06:18:13;;;;;;;8.48;6.03;;;;;;;9.17;100.00;101615.84;5113198;27;20096;-32
2022/04/21 06:20:41;;;;;;;9.30;6.28;;;;;;;9.22;100.00;101621.44;5112826;28;20054;-28
2022/04/21 06:23:09;;;;;;;8.73;5.50;;;;;;;9.27;100.00;101613.09;5113529;28;20044;-28
2022/04/21 06:25:41;;;;;;;11.52;7.65;;;;;;;9.34;100.00;101615.66;5103044;28;20052;-27
2022/04/21 06:28:10;;;;;;;10.57;7.72;;;;;;;9.41;100.00;101620.94;5112445;28;20130;-33
2022/04/21 06:30:38;;;;;;;10.80;7.00;;;;;;;9.48;100.00;101616.81;5113167;28;20054;-28
2022/04/21 06:33:07;;;;;;;12.75;7.13;;;;;;;9.57;100.00;101617.13;5112437;28;20047;-29
2022/04/21 06:35:35;;;;;;;9.50;6.85;;;;;;;9.69;100.00;101623.28;5113104;28;20095;-27
2022/04/21 06:38:03;;;;;;;10.45;6.80;;;;;;;9.91;100.00;101621.09;5112002;28;20073;-28
2022/04/21 06:40:31;;;;;;;9.52;6.72;;;;;;;10.26;100.00;101609.16;5112012;28;20043;-30
2022/04/21 06:43:02;;;;;;;10.00;6.57;;;;;;;10.73;100.00;101616.38;5112323;28;20549;-29
2022/04/21 06:48:24;;;;;;;9.10;6.40;;;;;;;11.98;100.00;101616.16;5111339;28;20052;-29
2022/04/21 06:50:54;;;;;;;8.90;6.78;;;;;;;12.58;100.00;101608.41;5111545;28;20040;-33
2022/04/21 06:53:22;;;;;;;8.00;6.10;;;;;;;13.21;98.77;101611.09;5110227;28;20486;-32
2022/04/21 06:55:50;;;;;;;10.02;6.15;;;;;;;13.84;94.41;101613.63;5112145;28;20062;-29
2022/04/21 06:58:17;;;;;;;9.35;5.88;;;;;;;14.29;90.39;101614.06;5112413;28;20580;-30
2022/04/21 07:00:45;;;;;;;8.68;6.05;;;;;;;14.77;87.22;101604.25;5112802;28;20051;-28
2022/04/21 07:03:13;;;;;;;9.00;6.72;;;;;;;15.35;82.48;101614.91;5111757;28;20055;-31
2022/04/21 07:05:42;;;;;;;6.88;5.25;;;;;;;15.93;79.44;101614.22;5112772;28;20043;-29
2022/04/21 07:08:10;;;;;;;8.07;4.95;;;;;;;16.59;76.52;101621.03;5112432;28;20048;-29
2022/04/21 07:10:38;;;;;;;9.15;5.70;;;;;;;17.23;70.51;101618.75;5112026;28;20160;-31
2022/04/21 07:13:09;;;;;;;8.88;5.88;;;;;;;17.68;67.45;101625.09;5112606;28;20079;-29
2022/04/21 07:15:37;;;;;;;8.07;5.38;;;;;;;18.22;65.72;101618.00;5112858;28;20463;-29
2022/04/21 07:18:05;;;;;;;8.68;4.97;;;;;;;18.78;62.22;101620.97;5111738;28;20048;-29
2022/04/21 07:20:33;;;;;;;7.43;5.28;;;;;;;19.19;59.31;101611.81;5111671;28;20062;-28
2022/04/21 07:23:02;;;;;;;6.85;4.60;;;;;;;19.59;57.62;101627.31;5112329;27;20070;-29
2022/04/21 07:25:30;;;;;;;5.75;4.63;;;;;;;20.13;55.60;101620.97;5111093;28;20048;-29
2022/04/21 07:27:58;;;;;;;6.07;4.20;;;;;;;20.60;53.62;101628.06;5113174;28;20512;-29
2022/04/21 07:30:25;;;;;;;7.57;4.63;;;;;;;20.87;52.31;101622.94;5113359;28;20530;-30
2022/04/21 07:32:53;;;;;;;5.93;4.40;;;;;;;21.01;50.45;101625.47;5112722;28;20059;-32
2022/04/21 07:35:21;;;;;;;6.88;4.57;;;;;;;21.10;50.83;101626.19;5113566;28;20048;-29
2022/04/21 07:37:50;;;;;;;7.05;4.70;;;;;;;21.41;50.03;101628.50;5113111;28;20039;-29
2022/04/21 07:40:20;;;;;;;6.00;4.60;;;;;;;21.37;48.81;101636.94;5110937;28;20056;-29
2022/04/21 07:42:48;;;;;;;7.85;5.78;;;;;;;21.15;47.56;101637.34;5113395;28;20074;-28
2022/04/21 07:45:16;;;;;;;8.05;5.55;;;;;;;20.75;48.72;101631.44;5112301;28;20052;-29
2022/04/21 07:47:44;;;;;;;8.93;6.05;;;;;;;20.71;48.90;101628.47;5112738;28;20040;-29
2022/04/21 07:50:12;;;;;;;6.88;5.38;;;;;;;20.91;48.08;101627.59;5112348;27;20063;-29
2022/04/21 07:55:27;;;;;;;7.05;5.07;;;;;;;21.62;47.11;101627.19;5112747;28;20044;-29
2022/04/21 07:57:56;;;;;;;6.78;4.50;;;;;;;21.99;46.17;101632.84;5112497;28;20492;-36
2022/04/21 08:00:25;;;;;;;8.25;5.97;;;;;;;22.15;43.98;101632.97;5111813;28;20128;-30
2022/04/21 08:02:53;;;;;;;7.63;5.57;;;;;;;21.66;44.22;101628.16;5112798;28;20132;-29
2022/04/21 08:05:22;;;;;;;7.32;5.45;;;;;;;21.76;43.99;101634.56;5112705;28;20043;-32
2022/04/21 08:07:51;;;;;;;7.03;4.80;;;;;;;21.73;43.18;101635.25;5111785;28;20048;-30
2022/04/21 08:10:20;;;;;;;5.43;4.10;;;;;;;21.76;43.15;101635.38;5112105;28;20130;-31
2022/04/21 08:12:51;;;;;;;8.43;5.35;;;;;;;21.77;41.87;101636.22;5112338;28;20131;-36
2022/04/21 08:15:24;;;;;;;6.20;4.43;;;;;;;21.84;42.26;101636.41;5111464;28;20135;-32
2022/04/21 08:17:54;;;;;;;5.18;4.13;;;;;;;21.69;42.01;101634.31;5112644;28;20050;-32
2022/04/21 08:20:23;;;;;;;6.03;4.20;;;;;;;21.78;41.64;101638.66;5111631;28;20047;-29
2022/04/21 08:22:51;;;;;;;6.30;4.45;;;;;;;21.61;40.75;101636.06;5112781;28;20055;-31
2022/04/21 08:34:16;;;;;;;5.63;3.97;;;;;;;20.09;42.64;101635.00;5111363;28;20044;-29
2022/04/21 08:36:49;;;;;;;6.32;3.90;;;;;;;19.97;42.31;101626.44;5111669;28;20079;-32
2022/04/21 08:39:17;;;;;;;5.15;3.90;;;;;;;19.85;42.13;101634.81;5111226;28;20051;-30
2022/04/21 08:41:49;;;;;;;7.00;4.18;;;;;;;20.10;42.44;101641.50;5110626;28;20052;-31
2022/04/21 08:44:20;;;;;;;;;;;;;;;20.41;40.75;101629.75;5112500;28;20057;-32
2022/04/21 08:46:49;;;;;;;5.63;3.45;;;;;;;20.90;41.85;101630.78;5111619;28;19949;-29
2022/04/21 08:49:19;;;;;;;4.97;3.47;;;;;;;21.64;39.68;101630.53;5110818;28;20101;-29
2022/04/21 08:51:48;;;;;;;6.93;2.85;;;;;;;21.94;37.90;101653.00;5104750;28;20431;-35
2022/04/21 08:54:17;;;;;;;4.35;3.10;;;;;;;21.91;36.74;101637.50;5111432;28;20477;-29
2022/04/21 08:56:45;;;;;;;4.05;3.00;;;;;;;21.77;36.34;101630.53;5111256;28;20074;-33
2022/04/21 08:59:12;;;;;;;4.03;3.35;;;;;;;22.05;36.51;101642.00;5111835;28;20122;-31
2022/04/21 09:01:43;;;;;;;5.75;3.05;;;;;;;22.26;37.30;101634.13;5111598;28;20045;-29
2022/04/21 09:04:11;;;;;;;5.85;3.00;;;;;;;22.75;36.75;101634.78;5110627;28;20144;-32
2022/04/21 09:06:39;;;;;;;4.10;3.03;;;;;;;23.19;35.45;101624.19;5111167;28;20051;-33
2022/04/21 09:09:14;;;;;;;4.10;2.95;;;;;;;23.21;35.59;101630.34;5111341;28;20534;-29
2022/04/21 09:11:43;;;;;;;4.30;3.00;;;;;;;23.40;35.45;101623.91;5109398;28;20499;-37
2022/04/21 09:14:16;;;;;;;5.13;3.42;;;;;;;23.58;34.33;101619.53;5110998;28;20070;-30
2022/04/21 09:16:46;;;;;;;3.63;2.80;;;;;;;23.54;34.61;101621.47;5110744;28;20582;-32
2022/04/21 09:19:15;;;;;;;8.82;2.65;;;;;;;23.53;34.38;101624.69;5100685;28;20163;-29
2022/04/21 09:21:43;;;;;;;5.00;2.45;;;;;;;23.50;34.20;101619.69;5111695;28;20163;-29
2022/04/21 09:24:21;;;;;;;4.05;3.10;;;;;;;23.74;33.40;101625.22;5110646;28;20070;-32
2022/04/21 09:26:49;;;;;;;3.53;2.47;;;;;;;23.87;33.26;101623.06;5101050;28;20090;-34
2022/04/21 09:29:24;;;;;;;4.25;2.60;;;;;;;24.02;31.66;101622.19;5111103;28;20047;-36
2022/04/21 09:32:02;;;;;;;3.78;2.70;;;;;;;23.98;31.98;101615.59;5099623;28;20055;-33
2022/04/21 09:34:36;;;;;;;5.15;2.67;;;;;;;24.05;32.80;101621.47;5110822;28;20089;-31
2022/04/21 09:37:06;;;;;;;4.05;2.67;;;;;;;23.67;32.79;101614.47;5111341;28;20550;-29
2022/04/21 09:39:39;;;;;;;3.00;2.20;;;;;;;23.69;33.28;101611.25;5109972;28;20036;-30
2022/04/21 09:42:07;;;;;;;3.78;2.20;;;;;;;23.78;33.14;101613.91;5111269;28;20499;-31
2022/04/21 09:47:29;;;;;;;3.78;2.15;;;;;;;24.14;32.09;101618.41;5099954;28;20051;-34
2022/04/21 09:49:58;;;;;;;3.30;2.53;;;;;;;24.16;32.88;101611.13;5114649;28;20058;-34
2022/04/21 09:52:27;;;;;;;4.15;2.60;;;;;;;23.84;32.61;101616.09;5114508;28;20059;-29
2022/04/21 09:54:56;;;;;;;5.03;2.83;;;;;;;23.63;32.92;101609.88;5114738;28;20814;-32
2022/04/21 09:57:30;;;;;;;3.88;2.95;;;;;;;23.84;33.04;101615.25;5115095;28;20409;-30
2022/04/21 09:59:59;;;;;;;3.60;2.50;;;;;;;23.95;32.96;101622.88;5109761;28;20074;-33
2022/04/21 10:02:29;;;;;;;3.13;1.90;;;;;;;24.34;33.09;101623.78;5114937;28;20583;-32
2022/04/21 10:04:59;;;;;;;4.10;2.50;;;;;;;24.77;32.11;101616.09;5113738;28;20055;-30
2022/04/21 10:07:27;;;;;;;6.28;2.17;;;;;;;24.93;31.49;101605.41;5113270;28;20057;-35
2022/04/21 10:09:55;;;;;;;3.53;2.30;;;;;;;25.08;31.04;101605.69;5115025;27;20040;-35
2022/04/21 10:12:23;;;;;;;3.88;2.40;;;;;;;25.10;30.76;101601.25;5114805;28;20070;-28
2022/04/21 10:14:51;;;;;;;4.18;2.30;;;;;;;24.90;30.59;101597.59;5114148;27;20055;-33
2022/04/21 10:17:19;;;;;;;2.83;2.03;;;;;;;24.86;31.08;101588.13;5114987;28;20561;-29
2022/04/21 10:19:52;;;;;;;3.53;1.77;;;;;;;24.86;30.87;101593.84;5114236;28;20067;-30
2022/04/21 10:22:27;;;;;;;3.33;2.00;;;;;;;24.85;30.88;101591.34;5115003;28;20062;-29
2022/04/21 10:24:56;;;;;;;4.47;2.13;;;;;;;24.80;30.63;101583.91;5114906;28;20048;-29
2022/04/21 10:27:38;;;;;;;3.85;2.00;;;;;;;24.81;30.08;101577.00;5113746;28;20048;-33
2022/04/21 10:30:13;;;;;;;4.25;2.08;;;;;;;24.61;30.34;101569.69;5112716;28;20092;-29
2022/04/21 10:32:52;;;;;;;3.60;2.00;;;;;;;24.37;30.40;101576.56;5114049;28;20051;-31
2022/04/21 10:35:46;;;;;;;2.95;1.73;;;;;;;24.24;29.69;101570.16;5113471;28;20082;-29
2022/04/21 10:38:18;;;;;;;3.05;1.92;;;;;;;24.35;30.95;101573.25;5114812;28;20047;-27
2022/04/21 10:40:56;;;;;;;4.20;2.20;;;;;;;24.25;30.11;101574.69;5114194;28;20083;-28
2022/04/21 10:43:24;;;;;;;2.88;1.90;;;;;;;24.45;31.23;101568.97;5114756;28;20126;-27
2022/04/21 10:46:05;;;;;;;2.72;1.92;;;;;;;24.70;28.58;101573.97;5114534;28;20047;-29
2022/04/21 10:48:41;;;;;;;3.15;2.17;;;;;;;24.26;30.11;101567.78;5113801;28;20044;-29
2022/04/21 10:51:10;;;;;;;4.13;2.10;;;;;;;24.14;31.06;101570.75;5114422;28;20489;-28
2022/04/21 10:59:50;;;;;;;3.88;2.05;;;;;;;24.73;29.61;101556.09;5113979;27;20378;-30
2022/04/21 11:02:18;;;;;;;3.80;2.28;;;;;;;24.66;30.60;101557.97;5113794;28;20475;-31
2022/04/21 11:04:46;;;;;;;3.20;1.95;;;;;;;24.71;30.98;101555.63;5114285;28;20054;-30
2022/04/21 11:07:15;;;;;;;3.38;2.25;;;;;;;24.92;30.01;101554.38;5114397;27;20047;-33
2022/04/21 11:09:46;;;;;;;3.50;2.20;;;;;;;24.73;30.17;101555.25;5113155;28;20047;-29
2022/04/21 11:12:45;;;;;;;2.90;2.03;;;;;;;24.67;30.58;101551.88;5114322;28;20043;-32
2022/04/21 11:15:34;;;;;;;2.95;2.08;;;;;;;24.83;29.68;101550.94;5114306;28;20043;-29
2022/04/21 11:18:06;;;;;;;3.05;2.05;;;;;;;24.83;30.10;101548.09;5112985;28;20067;-32
2022/04/21 11:20:34;;;;;;;4.45;2.50;;;;;;;24.65;30.38;101542.88;5113693;28;20134;-29
2022/04/21 11:23:03;;;;;;;2.63;1.90;;;;;;;24.52;30.95;101532.00;5110751;28;20069;-30
2022/04/21 11:25:35;;;;;;;3.25;2.63;;;;;;;24.57;31.06;101528.84;5113982;27;20047;-30
2022/04/21 11:28:03;;;;;;;3.15;2.25;;;;;;;24.48;31.01;101528.25;5113843;28;20050;-29
2022/04/21 11:30:31;;;;;;;4.57;2.53;;;;;;;24.44;31.23;101533.06;5112703;28;20043;-33
2022/04/21 11:33:01;;;;;;;2.88;2.08;;;;;;;24.35;31.34;101524.75;5113566;28;20100;-38
2022/04/21 11:35:29;;;;;;;4.55;2.70;;;;;;;24.23;31.42;101517.13;5113782;28;20496;-30
2022/04/21 11:37:58;;;;;;;3.13;2.28;;;;;;;24.03;31.26;101515.50;5112656;28;20054;-29
2022/04/21 11:40:31;;;;;;;3.92;1.95;;;;;;;23.66;32.92;101515.91;5113732;27;20056;-30
2022/04/21 11:43:02;;;;;;;3.67;2.20;;;;;;;23.58;32.42;101507.59;5113388;28;20492;-30
2022/04/21 11:45:33;;;;;;;3.80;2.20;;;;;;;23.58;32.80;101507.59;5112912;28;20052;-37
2022/04/21 11:48:02;;;;;;;3.45;2.03;;;;;;;23.62;32.80;101508.47;5112923;28;20055;-30
2022/04/21 11:50:31;;;;;;;5.03;2.00;;;;;;;23.75;33.21;101515.72;5113413;28;20056;-35
2022/04/21 11:53:12;;;;;;;4.53;2.08;;;;;;;23.98;33.99;101510.13;5112218;28;20591;-29
2022/04/21 11:55:42;;;;;;;3.88;1.88;;;;;;;23.79;34.57;101513.75;5113063;28;20508;-31
2022/04/21 11:58:13;;;;;;;6.45;1.98;;;;;;;23.65;35.21;101516.28;5112655;28;20559;-29
2022/04/21 12:06:30;;;;;;;4.00;1.65;;;;;;;23.08;36.54;101514.06;5112321;28;20055;-33
2022/04/21 12:08:58;;;;;;;3.20;1.50;;;;;;;23.08;36.97;101514.06;5113091;28;20054;-31
2022/04/21 12:11:28;;;;;;;4.72;1.77;;;;;;;23.12;36.43;101515.81;5112082;28;20043;-29
2022/04/21 12:13:56;;;;;;;3.08;1.77;;;;;;;22.86;36.65;101507.00;5112499;28;20055;-28
2022/04/21 12:16:43;;;;;;;4.55;1.70;;;;;;;22.65;36.88;101515.78;5112620;28;20052;-29
2022/04/21 12:19:16;;;;;;;6.40;1.70;;;;;;;22.43;37.13;101505.84;5112663;28;20051;-28
2022/04/21 12:21:45;;;;;;;4.13;2.17;;;;;;;22.22;37.38;101517.44;5112059;28;20051;-32
2022/04/21 12:24:18;;;;;;;3.88;2.20;;;;;;;22.05;37.82;101514.91;5112454;28;20046;-36
2022/04/21 12:26:54;;;;;;;5.53;2.03;;;;;;;21.78;38.58;101507.19;5111868;28;20048;-30